This is the latest recevied weather packets stored in our database for station/object WX5RP. If no packets are shown the sender has not sent any weather packets the latest 1 day(s).
| Time | Temp. | Humidity | Pressure | Rain* | Wind** | Luminosity | Snow |
|---|---|---|---|---|---|---|---|
| 1778011517 | 22.78° C | 35% | 1014 hPa | 0 mm | 4.92 m/s, 23° | 450 W/m² | - |
| 1778010916 | 22.22° C | 29% | 1014 hPa | 0 mm | 3.58 m/s, 23° | 1056 W/m² | - |
| 1778010317 | 22.78° C | 29% | 1014 hPa | 0 mm | 4.92 m/s, 338° | 720 W/m² | - |
| 1778009716 | 21.67° C | 32% | 1014 hPa | 0 mm | 2.68 m/s, 23° | 1102 W/m² | - |
| 1778009117 | 22.22° C | 32% | 1014.3 hPa | 0 mm | 4.02 m/s, 23° | 1091 W/m² | - |
| 1778008517 | 22.22° C | 37% | 1015 hPa | 0 mm | 4.47 m/s, 23° | 1043 W/m² | - |
| 1778007917 | 21.67° C | 32% | 1013.8 hPa | 0 mm | 4.02 m/s, 0° | 151 W/m² | - |
| 1778007316 | 21.11° C | 35% | 1013.4 hPa | 0 mm | 3.58 m/s, 23° | 827 W/m² | - |
| 1778006716 | 21.67° C | 33% | 1013.7 hPa | 0 mm | 4.92 m/s, 0° | 1045 W/m² | - |
| 1778006116 | 20° C | 41% | 1014.1 hPa | 0 mm | 4.02 m/s, 0° | 241 W/m² | - |
| 1778005516 | 20° C | 39% | 1014.6 hPa | 0 mm | 4.92 m/s, 23° | 193 W/m² | - |
| 1778004916 | 20° C | 37% | 1014.8 hPa | 0 mm | 4.02 m/s, 0° | 454 W/m² | - |
| 1778004316 | 19.44° C | 40% | 1014.4 hPa | 0 mm | 2.68 m/s, 23° | 202 W/m² | - |
| 1778003716 | 20.56° C | 42% | 1013.8 hPa | 0 mm | 3.58 m/s, 23° | 162 W/m² | - |
| 1778003116 | 20.56° C | 42% | 1014.1 hPa | 0 mm | 3.13 m/s, 23° | 907 W/m² | - |
| 1778002516 | 20.56° C | 41% | 1014.3 hPa | 0 mm | 1.34 m/s, 23° | 826 W/m² | - |
| 1778001916 | 19.44° C | 41% | 1014.7 hPa | 0 mm | 1.79 m/s, 338° | 790 W/m² | - |
| 1778001316 | 18.89° C | 45% | 1014.8 hPa | 0 mm | 2.24 m/s, 315° | 768 W/m² | - |
| 1778000716 | 18.33° C | 44% | 1014.2 hPa | 0 mm | 2.24 m/s, 0° | 747 W/m² | - |
| 1778000116 | 17.78° C | 45% | 1014.6 hPa | 0 mm | 1.34 m/s, 203° | 724 W/m² | - |
| 1777999516 | 17.22° C | 46% | 1014 hPa | 0 mm | 1.79 m/s, 270° | 697 W/m² | - |
| 1777998917 | 16.67° C | 46% | 1014.1 hPa | 0 mm | 1.79 m/s, 270° | 673 W/m² | - |
| 1777998325 | 16.11° C | 49% | 1014.4 hPa | 0 mm | 1.79 m/s, 270° | 646 W/m² | - |
| 1777997716 | 15° C | 51% | 1014.1 hPa | 0 mm | 1.34 m/s, 248° | 616 W/m² | - |
| 1777997115 | 14.44° C | 53% | 1014.4 hPa | 0 mm | 2.24 m/s, 203° | 578 W/m² | - |
* Rain latest hour (hover to see other rain measurements)
** Current wind speed in m/s (hover to see current wind gust speed)